createdAt,value
2019-01-31T00:02:12.575Z,0.10
2019-01-31T00:04:56.835Z,0.10
2019-01-31T00:07:38.531Z,0.10
2019-01-31T00:10:17.046Z,0.10
2019-01-31T00:12:52.793Z,0.00
2019-01-31T00:15:41.446Z,0.00
2019-01-31T00:18:16.990Z,0.10
2019-01-31T00:20:58.482Z,0.00
2019-01-31T00:23:45.215Z,0.00
2019-01-31T00:26:20.205Z,0.00
2019-01-31T00:29:11.430Z,0.00
2019-01-31T00:32:19.109Z,0.00
2019-01-31T00:35:04.099Z,0.00
2019-01-31T00:37:53.674Z,-0.10
2019-01-31T00:40:32.085Z,-0.10
2019-01-31T00:43:16.950Z,-0.10
2019-01-31T00:46:13.797Z,-0.10
2019-01-31T00:48:58.422Z,-0.10
2019-01-31T00:51:50.998Z,-0.10
2019-01-31T00:54:38.772Z,-0.10
2019-01-31T00:57:11.618Z,-0.10
2019-01-31T01:00:20.971Z,-0.10
2019-01-31T01:03:05.102Z,-0.10
2019-01-31T01:05:40.382Z,-0.20
2019-01-31T01:08:23.626Z,-0.10
2019-01-31T01:11:05.562Z,-0.10
2019-01-31T01:13:59.849Z,-0.10
2019-01-31T01:16:41.516Z,-0.10
2019-01-31T01:19:32.340Z,0.00
2019-01-31T01:22:10.855Z,0.00
2019-01-31T01:24:49.476Z,0.00
2019-01-31T01:27:25.005Z,0.10
2019-01-31T01:30:04.520Z,0.10
2019-01-31T01:32:46.248Z,0.10
2019-01-31T01:35:30.910Z,0.10
2019-01-31T01:38:09.285Z,0.10
2019-01-31T01:41:01.936Z,0.20
2019-01-31T01:43:46.627Z,0.20
2019-01-31T01:46:34.463Z,0.20
2019-01-31T01:49:09.806Z,0.20
2019-01-31T01:51:45.657Z,0.30
2019-01-31T01:54:30.522Z,0.40
2019-01-31T01:57:06.065Z,0.40
2019-01-31T01:59:44.788Z,0.50
2019-01-31T02:02:40.303Z,0.50
2019-01-31T02:05:33.053Z,0.40
2019-01-31T02:08:30.179Z,0.50
2019-01-31T02:11:18.038Z,0.40
2019-01-31T02:13:53.873Z,0.40
2019-01-31T02:16:29.544Z,0.40
2019-01-31T02:19:02.317Z,0.40
2019-01-31T02:21:37.864Z,0.40
2019-01-31T02:24:16.391Z,0.50
2019-01-31T02:27:10.464Z,0.50
2019-01-31T02:29:58.399Z,0.50
2019-01-31T02:32:47.770Z,0.50
2019-01-31T02:35:29.559Z,0.50
2019-01-31T02:38:11.353Z,0.50
2019-01-31T02:41:12.702Z,0.50
2019-01-31T02:43:54.293Z,0.50
2019-01-31T02:46:28.079Z,0.50
2019-01-31T02:49:00.776Z,0.50
2019-01-31T02:51:56.086Z,0.50
2019-01-31T02:54:46.889Z,0.50
2019-01-31T02:57:45.578Z,0.50
2019-01-31T03:00:27.472Z,0.50
2019-01-31T03:03:21.671Z,0.40
2019-01-31T03:06:09.281Z,0.30
2019-01-31T03:08:48.089Z,0.20
2019-01-31T03:11:20.881Z,0.10
2019-01-31T03:13:53.819Z,0.00
2019-01-31T03:16:49.691Z,-0.10
2019-01-31T03:19:52.787Z,-0.10
2019-01-31T03:22:34.580Z,-0.10
2019-01-31T03:25:18.820Z,-0.10
2019-01-31T03:27:58.160Z,-0.20
2019-01-31T03:30:55.929Z,-0.30
2019-01-31T03:33:46.631Z,-0.30
2019-01-31T03:36:28.100Z,-0.40
2019-01-31T03:39:16.465Z,-0.40
2019-01-31T03:41:49.216Z,-0.30
2019-01-31T03:44:40.048Z,-0.40
2019-01-31T03:47:25.833Z,-0.40
2019-01-31T03:50:01.260Z,-0.40
2019-01-31T03:53:07.372Z,-0.40
2019-01-31T03:55:41.144Z,-0.40
2019-01-31T03:58:13.921Z,-0.50
2019-01-31T04:01:07.838Z,-0.50
2019-01-31T04:03:46.280Z,-0.50
2019-01-31T04:06:18.177Z,-0.50
2019-01-31T04:08:47.763Z,-0.50
2019-01-31T04:11:17.491Z,-0.60
2019-01-31T04:13:48.635Z,-0.70
2019-01-31T04:16:18.347Z,-0.70
2019-01-31T04:18:47.921Z,-0.70
2019-01-31T04:21:17.656Z,-0.70
2019-01-31T04:23:47.251Z,-0.60
2019-01-31T04:26:16.973Z,-0.60
2019-01-31T04:28:46.679Z,-0.60
2019-01-31T04:31:16.287Z,-0.60
2019-01-31T04:33:45.898Z,-0.60
2019-01-31T04:36:15.401Z,-0.70
2019-01-31T04:38:45.112Z,-0.80
2019-01-31T04:41:14.612Z,-0.90
2019-01-31T04:43:44.221Z,-1.10
2019-01-31T04:46:13.825Z,-1.10
2019-01-31T04:48:43.436Z,-1.20
2019-01-31T04:51:13.044Z,-1.30
2019-01-31T04:53:42.747Z,-1.30
2019-01-31T04:56:12.457Z,-1.20
2019-01-31T04:58:42.044Z,-1.30
2019-01-31T05:01:11.674Z,-1.30
2019-01-31T05:03:41.269Z,-1.30
2019-01-31T05:06:10.884Z,-1.40
2019-01-31T05:08:40.699Z,-1.30
2019-01-31T05:11:10.407Z,-1.40
2019-01-31T05:13:40.115Z,-1.40
2019-01-31T05:16:09.831Z,-1.30
2019-01-31T05:18:40.966Z,-1.30
2019-01-31T05:21:10.580Z,-1.20
2019-01-31T05:23:40.075Z,-1.20
2019-01-31T05:26:09.685Z,-1.30
2019-01-31T05:28:39.292Z,-1.30
2019-01-31T05:31:08.795Z,-1.30
2019-01-31T05:33:38.300Z,-1.40
2019-01-31T05:36:07.804Z,-1.20
2019-01-31T05:38:37.307Z,-1.20
2019-01-31T05:41:06.791Z,-1.20
2019-01-31T05:43:36.316Z,-1.20
2019-01-31T05:46:05.926Z,-1.10
2019-01-31T05:48:36.143Z,-1.10
2019-01-31T05:51:05.751Z,-1.10
2019-01-31T05:53:35.472Z,-1.10
2019-01-31T05:56:05.068Z,-1.10
2019-01-31T05:58:35.903Z,-1.10
2019-01-31T06:01:05.509Z,-1.10
2019-01-31T06:03:35.328Z,-1.00
2019-01-31T06:06:06.654Z,-1.10
2019-01-31T06:08:36.276Z,-1.10
2019-01-31T06:11:07.702Z,-1.00
2019-01-31T06:13:37.738Z,-0.90
2019-01-31T06:16:07.255Z,-0.90
2019-01-31T06:18:37.062Z,-0.80
2019-01-31T06:21:06.546Z,-0.80
2019-01-31T06:23:36.166Z,-0.80
2019-01-31T06:26:06.595Z,-0.80
2019-01-31T06:28:36.507Z,-0.70
2019-01-31T06:31:06.128Z,-0.70
2019-01-31T06:33:35.721Z,-0.70
2019-01-31T06:36:05.225Z,-0.70
2019-01-31T06:38:34.830Z,-0.70
2019-01-31T06:41:04.440Z,-0.70
2019-01-31T06:43:34.042Z,-0.60
2019-01-31T06:46:03.756Z,-0.60
2019-01-31T06:48:34.084Z,-0.60
2019-01-31T06:51:03.992Z,-0.60
2019-01-31T06:53:33.582Z,-0.60
2019-01-31T06:56:03.205Z,-0.50
2019-01-31T06:58:32.796Z,-0.50
2019-01-31T07:01:03.686Z,-0.50
2019-01-31T07:03:33.352Z,-0.50
2019-01-31T07:06:02.960Z,-0.40
2019-01-31T07:08:32.570Z,-0.40
2019-01-31T07:11:02.131Z,-0.40
2019-01-31T07:13:33.809Z,-0.30
2019-01-31T07:16:03.025Z,-0.20
2019-01-31T07:18:32.507Z,-0.20
2019-01-31T07:21:02.244Z,-0.10
2019-01-31T07:23:31.846Z,-0.10
2019-01-31T07:26:01.492Z,-0.10
2019-01-31T07:28:31.263Z,-0.10
2019-01-31T07:31:00.873Z,-0.10
2019-01-31T07:33:30.586Z,0.00
2019-01-31T07:36:00.190Z,0.00
2019-01-31T07:38:29.867Z,0.10
2019-01-31T07:40:59.402Z,0.00
2019-01-31T07:43:29.012Z,0.10
2019-01-31T07:45:58.625Z,0.10
2019-01-31T07:48:28.194Z,0.10
2019-01-31T07:50:57.723Z,0.20
2019-01-31T07:53:27.539Z,0.20
2019-01-31T07:55:57.046Z,0.20
2019-01-31T07:58:26.755Z,0.20
2019-01-31T08:00:56.252Z,0.30
2019-01-31T08:03:25.965Z,0.50
2019-01-31T08:05:55.467Z,0.50
2019-01-31T08:08:24.975Z,0.50
2019-01-31T08:10:56.603Z,0.60
2019-01-31T08:13:26.130Z,0.50
2019-01-31T08:15:55.639Z,0.50
2019-01-31T08:18:25.142Z,0.60
2019-01-31T08:20:54.748Z,0.70
2019-01-31T08:23:24.352Z,0.90
2019-01-31T08:25:54.061Z,1.10
2019-01-31T08:28:23.671Z,1.20
2019-01-31T08:30:53.382Z,1.30
2019-01-31T08:35:53.910Z,1.40
2019-01-31T08:38:23.372Z,1.50
2019-01-31T08:40:53.036Z,1.50
2019-01-31T08:43:22.710Z,1.60
2019-01-31T08:45:52.349Z,1.60
2019-01-31T08:48:22.060Z,1.80
2019-01-31T08:50:51.667Z,2.00
2019-01-31T08:53:21.385Z,2.00
2019-01-31T08:55:50.885Z,2.00
2019-01-31T09:00:49.892Z,2.40
2019-01-31T09:03:19.498Z,2.40
2019-01-31T09:05:48.997Z,2.50
2019-01-31T09:08:22.286Z,2.40
2019-01-31T09:10:52.002Z,2.50
2019-01-31T09:13:21.918Z,2.80
2019-01-31T09:15:51.418Z,3.00
2019-01-31T09:18:21.127Z,3.30
2019-01-31T09:21:11.829Z,3.70
2019-01-31T09:23:47.176Z,3.40
2019-01-31T09:26:25.997Z,3.20
2019-01-31T09:29:16.781Z,3.40
2019-01-31T09:32:18.351Z,3.80
2019-01-31T09:35:07.734Z,4.10
2019-01-31T09:37:55.868Z,5.00
2019-01-31T09:40:37.655Z,6.80
2019-01-31T09:43:10.333Z,6.30
2019-01-31T09:45:43.090Z,5.70
2019-01-31T09:48:18.464Z,5.10
2019-01-31T09:51:09.161Z,5.40
2019-01-31T09:53:58.944Z,8.70
2019-01-31T09:56:53.225Z,11.00
2019-01-31T09:59:44.542Z,11.80
2019-01-31T10:02:38.826Z,12.20
2019-01-31T10:05:17.653Z,12.60
2019-01-31T10:08:02.719Z,12.80
2019-01-31T10:11:05.303Z,13.60
2019-01-31T10:13:43.950Z,12.90
2019-01-31T10:16:22.624Z,14.40
2019-01-31T10:18:58.261Z,13.40
2019-01-31T10:21:46.426Z,13.60
2019-01-31T10:24:30.928Z,12.70
2019-01-31T10:27:15.847Z,13.60
2019-01-31T10:30:00.403Z,13.60
2019-01-31T10:32:35.947Z,13.60
2019-01-31T10:35:23.993Z,13.00
2019-01-31T10:38:07.736Z,13.20
2019-01-31T10:40:52.069Z,12.90
2019-01-31T10:43:27.417Z,13.90
2019-01-31T10:46:13.002Z,15.00
2019-01-31T10:49:15.890Z,15.40
2019-01-31T10:52:12.427Z,15.10
2019-01-31T10:54:47.755Z,14.40
2019-01-31T10:57:40.104Z,14.50
2019-01-31T11:00:14.523Z,14.60
2019-01-31T11:02:56.321Z,14.60
2019-01-31T11:05:45.793Z,13.70
2019-01-31T11:08:33.113Z,14.10
2019-01-31T11:11:05.875Z,13.20
2019-01-31T11:14:03.051Z,13.90
2019-01-31T11:16:35.933Z,13.70
2019-01-31T11:19:12.723Z,14.60
2019-01-31T11:22:19.793Z,15.20
2019-01-31T11:24:53.385Z,14.00
2019-01-31T11:27:47.549Z,14.00
2019-01-31T11:30:29.364Z,14.10
2019-01-31T11:33:12.264Z,14.30
2019-01-31T11:36:03.202Z,15.30
2019-01-31T11:38:35.941Z,13.90
2019-01-31T11:41:21.961Z,13.50
2019-01-31T11:44:11.639Z,12.60
2019-01-31T11:46:44.425Z,14.00
2019-01-31T11:49:20.380Z,13.70
2019-01-31T11:52:14.969Z,14.50
2019-01-31T11:55:02.956Z,14.90
2019-01-31T11:57:48.401Z,14.10
2019-01-31T12:00:20.249Z,13.50
2019-01-31T12:02:55.159Z,14.20
2019-01-31T12:05:21.304Z,13.90
2019-01-31T12:07:50.810Z,13.80
2019-01-31T12:10:21.852Z,13.90
2019-01-31T12:12:52.582Z,13.90
2019-01-31T12:15:22.091Z,14.30
2019-01-31T12:17:53.718Z,10.80
2019-01-31T12:20:25.008Z,8.70
2019-01-31T12:22:57.139Z,7.50
2019-01-31T12:25:27.462Z,6.90
2019-01-31T12:27:57.602Z,6.70
2019-01-31T12:30:29.453Z,9.00
2019-01-31T12:32:59.575Z,9.10
2019-01-31T12:35:29.831Z,11.90
2019-01-31T12:38:00.222Z,10.60
2019-01-31T12:40:31.669Z,8.30
2019-01-31T12:43:01.790Z,8.20
2019-01-31T12:45:32.323Z,11.00
2019-01-31T12:48:02.527Z,12.00
2019-01-31T12:50:32.456Z,10.50
2019-01-31T12:53:03.170Z,9.70
2019-01-31T12:55:34.224Z,8.60
2019-01-31T12:58:03.937Z,7.90
2019-01-31T13:00:33.778Z,7.80
2019-01-31T13:03:03.443Z,7.10
2019-01-31T13:05:33.165Z,7.40
2019-01-31T13:08:02.879Z,6.60
2019-01-31T13:10:32.587Z,6.60
2019-01-31T13:13:03.319Z,6.10
2019-01-31T13:15:33.539Z,5.70
2019-01-31T13:18:03.555Z,5.80
2019-01-31T13:20:33.480Z,5.60
2019-01-31T13:23:05.021Z,5.80
2019-01-31T13:25:35.039Z,5.80
2019-01-31T13:28:05.161Z,5.50
2019-01-31T13:30:34.796Z,5.20
2019-01-31T13:33:06.218Z,5.10
2019-01-31T13:35:35.929Z,5.20
2019-01-31T13:38:05.632Z,5.30
2019-01-31T13:40:35.340Z,5.40
2019-01-31T13:43:08.164Z,5.40
2019-01-31T13:45:38.142Z,5.60
2019-01-31T13:48:09.547Z,5.80
2019-01-31T13:50:41.002Z,5.50
2019-01-31T13:53:11.592Z,5.60
2019-01-31T13:55:41.535Z,5.60
2019-01-31T13:58:11.722Z,5.40
2019-01-31T14:00:41.788Z,5.30
2019-01-31T14:03:13.068Z,5.50
2019-01-31T14:05:44.443Z,5.70
2019-01-31T14:08:15.662Z,5.40
2019-01-31T14:10:45.470Z,5.10
2019-01-31T14:13:16.649Z,5.00
2019-01-31T14:15:47.040Z,5.80
2019-01-31T14:18:17.327Z,6.60
2019-01-31T14:20:47.312Z,7.00
2019-01-31T14:23:16.991Z,6.00
2019-01-31T14:25:50.415Z,6.90
2019-01-31T14:28:20.606Z,7.60
2019-01-31T14:30:50.944Z,8.60
2019-01-31T14:33:23.743Z,9.20
2019-01-31T14:35:54.071Z,8.60
2019-01-31T14:38:24.371Z,7.00
2019-01-31T14:40:57.959Z,6.30
2019-01-31T14:43:29.309Z,5.70
2019-01-31T14:45:59.230Z,5.40
2019-01-31T14:48:29.456Z,5.70
2019-01-31T14:50:59.376Z,5.20
2019-01-31T14:53:30.809Z,5.00
2019-01-31T14:56:00.764Z,4.60
2019-01-31T14:58:30.943Z,4.30
2019-01-31T15:01:01.096Z,4.20
2019-01-31T15:03:33.609Z,3.90
2019-01-31T15:06:04.151Z,3.60
2019-01-31T15:08:34.695Z,3.30
2019-01-31T15:11:04.973Z,3.10
2019-01-31T15:13:36.839Z,2.90
2019-01-31T15:16:07.188Z,2.80
2019-01-31T15:18:37.526Z,2.80
2019-01-31T15:21:07.383Z,3.00
2019-01-31T15:23:38.649Z,2.70
2019-01-31T15:26:08.675Z,2.60
2019-01-31T15:28:38.872Z,2.50
2019-01-31T15:31:09.022Z,2.40
2019-01-31T15:33:40.428Z,2.30
2019-01-31T15:36:12.060Z,2.10
2019-01-31T15:38:42.362Z,2.00
2019-01-31T15:41:12.178Z,1.90
2019-01-31T15:43:42.909Z,1.70
2019-01-31T15:46:13.092Z,1.60
2019-01-31T15:48:43.561Z,1.40
2019-01-31T15:51:13.275Z,1.30
2019-01-31T15:53:43.795Z,1.40
2019-01-31T15:56:13.500Z,1.40
2019-01-31T15:58:43.296Z,1.30
2019-01-31T16:01:13.131Z,1.20
2019-01-31T16:03:42.947Z,1.30
2019-01-31T16:06:12.651Z,1.20
2019-01-31T16:08:42.255Z,1.30
2019-01-31T16:11:11.976Z,1.30
2019-01-31T16:13:41.575Z,0.90
2019-01-31T16:16:11.200Z,0.90
2019-01-31T16:18:40.987Z,0.90
2019-01-31T16:21:10.595Z,0.80
2019-01-31T16:23:40.410Z,0.80
2019-01-31T16:26:10.118Z,0.70
2019-01-31T16:28:39.726Z,0.50
2019-01-31T16:31:09.329Z,0.60
2019-01-31T16:33:38.944Z,0.50
2019-01-31T16:36:08.546Z,0.50
2019-01-31T16:38:38.254Z,0.70
2019-01-31T16:41:09.666Z,0.50
2019-01-31T16:43:39.414Z,0.60
2019-01-31T16:46:09.100Z,0.30
2019-01-31T16:48:38.611Z,0.20
2019-01-31T16:51:08.144Z,0.40
2019-01-31T16:53:37.740Z,0.10
2019-01-31T16:56:07.341Z,0.10
2019-01-31T16:58:37.131Z,0.00
2019-01-31T17:01:06.850Z,-0.20
2019-01-31T17:03:36.470Z,-0.20
2019-01-31T17:06:06.076Z,-0.20
2019-01-31T17:08:35.788Z,-0.40
2019-01-31T17:11:05.394Z,-0.40
2019-01-31T17:13:35.002Z,-0.60
2019-01-31T17:16:04.611Z,-0.60
2019-01-31T17:18:34.112Z,-0.70
2019-01-31T17:21:03.719Z,-0.70
2019-01-31T17:23:33.323Z,-0.80
2019-01-31T17:26:02.834Z,-0.80
2019-01-31T17:28:32.416Z,-0.90
2019-01-31T17:31:02.146Z,-0.90
2019-01-31T17:33:31.753Z,-0.90
2019-01-31T17:36:01.466Z,-0.80
2019-01-31T17:38:33.055Z,-0.80
2019-01-31T17:41:02.414Z,-0.80
2019-01-31T17:43:32.228Z,-0.80
2019-01-31T17:46:02.148Z,-0.80
2019-01-31T17:48:31.952Z,-0.80
2019-01-31T17:51:02.172Z,-0.80
2019-01-31T17:53:31.885Z,-0.60
2019-01-31T17:56:01.696Z,-0.50
2019-01-31T17:58:31.995Z,-0.70
2019-01-31T18:01:02.819Z,-0.70
2019-01-31T18:03:32.807Z,-0.90
2019-01-31T18:06:05.240Z,-0.80
2019-01-31T18:08:35.429Z,-0.80
2019-01-31T18:11:05.650Z,-0.90
2019-01-31T18:13:36.080Z,-1.00
2019-01-31T18:16:10.859Z,-1.00
2019-01-31T18:18:41.171Z,-0.90
2019-01-31T18:21:13.084Z,-0.80
2019-01-31T18:23:44.135Z,-0.80
2019-01-31T18:26:16.467Z,-0.80
2019-01-31T18:28:47.916Z,-0.90
2019-01-31T18:31:22.288Z,-1.00
2019-01-31T18:33:53.543Z,-1.00
2019-01-31T18:36:26.648Z,-1.00
2019-01-31T18:38:58.106Z,-1.10
2019-01-31T18:41:29.307Z,-1.20
2019-01-31T18:43:59.138Z,-1.20
2019-01-31T18:46:30.498Z,-1.20
2019-01-31T18:49:01.556Z,-1.30
2019-01-31T18:51:32.064Z,-1.30
2019-01-31T18:54:02.293Z,-1.30
2019-01-31T18:56:35.136Z,-1.30
2019-01-31T18:59:05.510Z,-1.30
2019-01-31T19:01:36.548Z,-1.40
2019-01-31T19:04:06.853Z,-1.50
2019-01-31T19:06:37.772Z,-1.60
2019-01-31T19:09:08.334Z,-1.60
2019-01-31T19:11:43.775Z,-1.50
2019-01-31T19:14:15.768Z,-1.50
2019-01-31T19:16:46.094Z,-1.50
2019-01-31T19:19:17.307Z,-1.60
2019-01-31T19:21:47.512Z,-1.60
2019-01-31T19:24:21.947Z,-1.60
2019-01-31T19:26:52.798Z,-1.60
2019-01-31T19:29:25.911Z,-1.50
2019-01-31T19:31:57.878Z,-1.60
2019-01-31T19:34:29.289Z,-1.70
2019-01-31T19:37:00.730Z,-1.70
2019-01-31T19:39:35.406Z,-1.70
2019-01-31T19:42:04.641Z,-1.80
2019-01-31T19:44:35.527Z,-1.70
2019-01-31T19:47:06.704Z,-1.70
2019-01-31T19:49:37.768Z,-1.70
2019-01-31T19:52:08.992Z,-1.70
2019-01-31T19:54:40.099Z,-1.70
2019-01-31T19:57:11.471Z,-1.70
2019-01-31T19:59:42.889Z,-1.80
2019-01-31T20:02:15.895Z,-1.70
2019-01-31T20:04:48.078Z,-1.70
2019-01-31T20:07:19.449Z,-1.60
2019-01-31T20:09:50.832Z,-1.60
2019-01-31T20:12:22.091Z,-1.60
2019-01-31T20:14:54.053Z,-1.50
2019-01-31T20:17:26.317Z,-1.50
2019-01-31T20:19:57.180Z,-1.40
2019-01-31T20:22:28.844Z,-1.30
2019-01-31T20:25:00.189Z,-1.30
2019-01-31T20:27:31.352Z,-1.20
2019-01-31T20:30:01.828Z,-1.20
2019-01-31T20:32:32.900Z,-1.20
2019-01-31T20:35:05.641Z,-1.20
2019-01-31T20:37:36.423Z,-1.10
2019-01-31T20:40:13.967Z,-1.10
2019-01-31T20:42:44.469Z,-1.10
2019-01-31T20:45:16.152Z,-1.10
2019-01-31T20:47:46.242Z,-1.20
2019-01-31T20:50:22.541Z,-1.20
2019-01-31T20:52:53.326Z,-1.20
2019-01-31T20:55:23.443Z,-1.20
2019-01-31T20:57:55.510Z,-1.20
2019-01-31T21:00:32.950Z,-1.30
2019-01-31T21:03:03.989Z,-1.30
2019-01-31T21:05:36.574Z,-1.30
2019-01-31T21:08:09.228Z,-1.40
2019-01-31T21:10:39.718Z,-1.50
2019-01-31T21:13:09.739Z,-1.50
2019-01-31T21:15:40.497Z,-1.60
2019-01-31T21:18:10.433Z,-1.60
2019-01-31T21:20:44.469Z,-1.60
2019-01-31T21:23:14.975Z,-1.60
2019-01-31T21:25:45.315Z,-1.60
2019-01-31T21:28:15.789Z,-1.70
2019-01-31T21:30:45.804Z,-1.70
2019-01-31T21:33:15.690Z,-1.80
2019-01-31T21:35:45.513Z,-1.80
2019-01-31T21:38:15.530Z,-1.90
2019-01-31T21:40:45.446Z,-1.90
2019-01-31T21:43:15.170Z,-1.90
2019-01-31T21:45:45.561Z,-1.90
2019-01-31T21:48:15.293Z,-2.00
2019-01-31T21:50:47.340Z,-2.00
2019-01-31T21:53:19.013Z,-2.00
2019-01-31T21:55:52.348Z,-2.10
2019-01-31T21:58:22.469Z,-2.00
2019-01-31T22:00:53.460Z,-2.00
2019-01-31T22:03:24.297Z,-2.00
2019-01-31T22:05:55.767Z,-2.00
2019-01-31T22:08:25.776Z,-2.00
2019-01-31T22:10:56.099Z,-2.10
2019-01-31T22:13:26.077Z,-2.20
2019-01-31T22:15:56.290Z,-2.20
2019-01-31T22:18:26.218Z,-2.20
2019-01-31T22:20:56.580Z,-2.20
2019-01-31T22:23:26.676Z,-2.20
2019-01-31T22:25:56.383Z,-2.10
2019-01-31T22:28:25.995Z,-2.20
2019-01-31T22:30:55.704Z,-2.10
2019-01-31T22:33:25.310Z,-2.10
2019-01-31T22:35:54.917Z,-2.10
2019-01-31T22:38:24.631Z,-2.10
2019-01-31T22:40:54.346Z,-2.10
2019-01-31T22:43:24.154Z,-2.20
2019-01-31T22:45:54.474Z,-2.20
2019-01-31T22:48:24.154Z,-2.30
2019-01-31T22:50:53.892Z,-2.40
2019-01-31T22:53:23.494Z,-2.30
2019-01-31T22:55:53.209Z,-2.30
2019-01-31T22:58:22.913Z,-2.30
2019-01-31T23:00:57.135Z,-2.30
2019-01-31T23:03:27.046Z,-2.30
2019-01-31T23:05:57.980Z,-2.40
2019-01-31T23:08:27.689Z,-2.30
2019-01-31T23:10:57.401Z,-2.30
2019-01-31T23:13:27.005Z,-2.30
2019-01-31T23:15:56.541Z,-2.30
2019-01-31T23:18:26.123Z,-2.40
2019-01-31T23:20:55.722Z,-2.40
2019-01-31T23:23:25.328Z,-2.40
2019-01-31T23:25:55.018Z,-2.50
2019-01-31T23:28:25.770Z,-2.50
2019-01-31T23:30:55.374Z,-2.50
2019-01-31T23:33:24.883Z,-2.60
2019-01-31T23:35:54.591Z,-2.60
2019-01-31T23:38:24.197Z,-2.70
2019-01-31T23:40:53.802Z,-2.70
2019-01-31T23:43:23.522Z,-2.70
2019-01-31T23:45:53.327Z,-2.60
2019-01-31T23:48:22.931Z,-2.70
2019-01-31T23:50:52.537Z,-2.70
2019-01-31T23:53:22.244Z,-2.70
2019-01-31T23:55:51.858Z,-2.80
2019-01-31T23:58:21.460Z,-2.80
